sensor_id;sensor_type;location;lat;lon;timestamp;P1;durP1;ratioP1;P2;durP2;ratioP2
74908;SDS011;63468;52.058;4.824;2023-12-20T00:01:23;19.55;;;17.45;;
74908;SDS011;63468;52.058;4.824;2023-12-20T00:03:48;18.88;;;17.35;;
74908;SDS011;63468;52.058;4.824;2023-12-20T00:06:13;20.15;;;16.55;;
74908;SDS011;63468;52.058;4.824;2023-12-20T00:08:39;18.67;;;16.77;;
74908;SDS011;63468;52.058;4.824;2023-12-20T00:11:04;20.98;;;18.92;;
74908;SDS011;63468;52.058;4.824;2023-12-20T00:13:29;20.27;;;18.48;;
74908;SDS011;63468;52.058;4.824;2023-12-20T00:15:55;20.83;;;19.17;;
74908;SDS011;63468;52.058;4.824;2023-12-20T00:18:20;19.50;;;17.58;;
74908;SDS011;63468;52.058;4.824;2023-12-20T00:20:45;19.98;;;18.15;;
74908;SDS011;63468;52.058;4.824;2023-12-20T00:23:11;20.33;;;18.40;;
74908;SDS011;63468;52.058;4.824;2023-12-20T00:25:36;20.83;;;18.90;;
74908;SDS011;63468;52.058;4.824;2023-12-20T00:28:02;19.75;;;17.95;;
74908;SDS011;63468;52.058;4.824;2023-12-20T00:30:28;21.77;;;18.75;;
74908;SDS011;63468;52.058;4.824;2023-12-20T00:32:53;20.48;;;18.52;;
74908;SDS011;63468;52.058;4.824;2023-12-20T00:35:21;20.17;;;18.13;;
74908;SDS011;63468;52.058;4.824;2023-12-20T00:37:46;21.85;;;19.75;;
74908;SDS011;63468;52.058;4.824;2023-12-20T00:40:12;23.35;;;19.65;;
74908;SDS011;63468;52.058;4.824;2023-12-20T00:42:37;21.20;;;19.30;;
74908;SDS011;63468;52.058;4.824;2023-12-20T00:45:03;20.13;;;18.40;;
74908;SDS011;63468;52.058;4.824;2023-12-20T00:47:29;20.83;;;18.90;;
74908;SDS011;63468;52.058;4.824;2023-12-20T00:49:55;22.52;;;19.98;;
74908;SDS011;63468;52.058;4.824;2023-12-20T00:52:20;23.88;;;21.17;;
74908;SDS011;63468;52.058;4.824;2023-12-20T00:54:47;23.65;;;21.30;;
74908;SDS011;63468;52.058;4.824;2023-12-20T00:57:14;19.73;;;17.83;;
74908;SDS011;63468;52.058;4.824;2023-12-20T00:59:40;20.05;;;18.45;;
74908;SDS011;63468;52.058;4.824;2023-12-20T01:02:05;22.00;;;19.67;;
74908;SDS011;63468;52.058;4.824;2023-12-20T01:04:30;25.75;;;18.58;;
74908;SDS011;63468;52.058;4.824;2023-12-20T01:06:56;20.10;;;18.10;;
74908;SDS011;63468;52.058;4.824;2023-12-20T01:09:21;21.33;;;19.88;;
74908;SDS011;63468;52.058;4.824;2023-12-20T01:11:51;24.10;;;21.10;;
74908;SDS011;63468;52.058;4.824;2023-12-20T01:14:16;22.40;;;20.25;;
74908;SDS011;63468;52.058;4.824;2023-12-20T01:16:42;22.08;;;19.27;;
74908;SDS011;63468;52.058;4.824;2023-12-20T01:19:07;23.42;;;20.02;;
74908;SDS011;63468;52.058;4.824;2023-12-20T01:21:32;25.35;;;19.27;;
74908;SDS011;63468;52.058;4.824;2023-12-20T01:23:58;22.65;;;20.42;;
74908;SDS011;63468;52.058;4.824;2023-12-20T01:26:23;22.77;;;19.58;;
74908;SDS011;63468;52.058;4.824;2023-12-20T01:28:49;21.85;;;19.85;;
74908;SDS011;63468;52.058;4.824;2023-12-20T01:31:14;24.27;;;18.77;;
74908;SDS011;63468;52.058;4.824;2023-12-20T01:33:39;25.88;;;18.83;;
74908;SDS011;63468;52.058;4.824;2023-12-20T01:36:05;30.73;;;19.13;;
74908;SDS011;63468;52.058;4.824;2023-12-20T01:38:30;20.83;;;18.88;;
74908;SDS011;63468;52.058;4.824;2023-12-20T01:40:56;21.73;;;19.17;;
74908;SDS011;63468;52.058;4.824;2023-12-20T01:43:21;31.75;;;19.13;;
74908;SDS011;63468;52.058;4.824;2023-12-20T01:45:46;20.50;;;17.95;;
74908;SDS011;63468;52.058;4.824;2023-12-20T01:48:12;21.05;;;18.85;;
74908;SDS011;63468;52.058;4.824;2023-12-20T01:50:40;27.42;;;19.80;;
74908;SDS011;63468;52.058;4.824;2023-12-20T01:53:05;23.60;;;18.60;;
74908;SDS011;63468;52.058;4.824;2023-12-20T01:55:33;30.13;;;18.83;;
74908;SDS011;63468;52.058;4.824;2023-12-20T01:58:00;20.77;;;18.63;;
74908;SDS011;63468;52.058;4.824;2023-12-20T02:00:26;19.52;;;17.83;;
74908;SDS011;63468;52.058;4.824;2023-12-20T02:02:53;19.90;;;16.20;;
74908;SDS011;63468;52.058;4.824;2023-12-20T02:05:20;19.88;;;16.83;;
74908;SDS011;63468;52.058;4.824;2023-12-20T02:07:46;19.00;;;17.33;;
74908;SDS011;63468;52.058;4.824;2023-12-20T02:10:11;19.25;;;17.33;;
74908;SDS011;63468;52.058;4.824;2023-12-20T02:12:36;19.23;;;16.42;;
74908;SDS011;63468;52.058;4.824;2023-12-20T02:15:02;19.50;;;17.58;;
74908;SDS011;63468;52.058;4.824;2023-12-20T02:17:27;22.02;;;17.33;;
74908;SDS011;63468;52.058;4.824;2023-12-20T02:19:53;22.13;;;16.98;;
74908;SDS011;63468;52.058;4.824;2023-12-20T02:22:18;23.15;;;18.10;;
74908;SDS011;63468;52.058;4.824;2023-12-20T02:24:43;21.42;;;18.52;;
74908;SDS011;63468;52.058;4.824;2023-12-20T02:27:09;18.42;;;16.73;;
74908;SDS011;63468;52.058;4.824;2023-12-20T02:29:35;21.17;;;17.35;;
74908;SDS011;63468;52.058;4.824;2023-12-20T02:32:00;19.67;;;17.75;;
74908;SDS011;63468;52.058;4.824;2023-12-20T02:34:26;20.13;;;18.27;;
74908;SDS011;63468;52.058;4.824;2023-12-20T02:36:51;23.98;;;17.73;;
74908;SDS011;63468;52.058;4.824;2023-12-20T02:39:17;24.80;;;16.88;;
74908;SDS011;63468;52.058;4.824;2023-12-20T02:41:43;17.73;;;16.15;;
74908;SDS011;63468;52.058;4.824;2023-12-20T02:44:09;23.00;;;16.67;;
74908;SDS011;63468;52.058;4.824;2023-12-20T02:46:34;19.88;;;17.42;;
74908;SDS011;63468;52.058;4.824;2023-12-20T02:48:59;18.40;;;16.63;;
74908;SDS011;63468;52.058;4.824;2023-12-20T02:51:25;19.05;;;15.70;;
74908;SDS011;63468;52.058;4.824;2023-12-20T02:53:50;19.17;;;16.75;;
74908;SDS011;63468;52.058;4.824;2023-12-20T02:56:16;21.05;;;17.35;;
74908;SDS011;63468;52.058;4.824;2023-12-20T02:58:41;18.10;;;15.93;;
74908;SDS011;63468;52.058;4.824;2023-12-20T03:01:06;26.00;;;16.05;;
74908;SDS011;63468;52.058;4.824;2023-12-20T03:03:32;18.20;;;16.40;;
74908;SDS011;63468;52.058;4.824;2023-12-20T03:05:58;17.98;;;15.77;;
74908;SDS011;63468;52.058;4.824;2023-12-20T03:08:24;19.27;;;16.33;;
74908;SDS011;63468;52.058;4.824;2023-12-20T03:10:50;21.52;;;16.90;;
74908;SDS011;63468;52.058;4.824;2023-12-20T03:13:15;18.75;;;16.13;;
74908;SDS011;63468;52.058;4.824;2023-12-20T03:15:40;18.20;;;16.38;;
74908;SDS011;63468;52.058;4.824;2023-12-20T03:18:06;21.67;;;17.38;;
74908;SDS011;63468;52.058;4.824;2023-12-20T03:20:31;21.15;;;16.15;;
74908;SDS011;63468;52.058;4.824;2023-12-20T03:23:00;23.17;;;17.08;;
74908;SDS011;63468;52.058;4.824;2023-12-20T03:25:26;26.05;;;16.83;;
74908;SDS011;63468;52.058;4.824;2023-12-20T03:27:52;23.88;;;16.58;;
74908;SDS011;63468;52.058;4.824;2023-12-20T03:30:18;20.08;;;16.63;;
74908;SDS011;63468;52.058;4.824;2023-12-20T03:32:43;28.30;;;16.77;;
74908;SDS011;63468;52.058;4.824;2023-12-20T03:35:09;19.00;;;16.00;;
74908;SDS011;63468;52.058;4.824;2023-12-20T03:37:34;24.48;;;16.13;;
74908;SDS011;63468;52.058;4.824;2023-12-20T03:39:59;17.02;;;15.32;;
74908;SDS011;63468;52.058;4.824;2023-12-20T03:42:25;19.80;;;15.93;;
74908;SDS011;63468;52.058;4.824;2023-12-20T03:44:50;17.17;;;15.63;;
74908;SDS011;63468;52.058;4.824;2023-12-20T03:47:15;15.75;;;14.30;;
74908;SDS011;63468;52.058;4.824;2023-12-20T03:49:41;19.42;;;14.75;;
74908;SDS011;63468;52.058;4.824;2023-12-20T03:52:06;16.95;;;14.25;;
74908;SDS011;63468;52.058;4.824;2023-12-20T03:54:32;17.52;;;15.10;;
74908;SDS011;63468;52.058;4.824;2023-12-20T03:56:58;20.33;;;15.00;;
74908;SDS011;63468;52.058;4.824;2023-12-20T03:59:23;21.55;;;15.07;;
74908;SDS011;63468;52.058;4.824;2023-12-20T04:01:48;17.40;;;15.13;;
74908;SDS011;63468;52.058;4.824;2023-12-20T04:04:14;26.02;;;15.63;;
74908;SDS011;63468;52.058;4.824;2023-12-20T04:06:39;18.27;;;14.95;;
74908;SDS011;63468;52.058;4.824;2023-12-20T04:09:05;21.63;;;15.57;;
74908;SDS011;63468;52.058;4.824;2023-12-20T04:11:30;21.10;;;14.35;;
74908;SDS011;63468;52.058;4.824;2023-12-20T04:13:55;21.10;;;14.88;;
74908;SDS011;63468;52.058;4.824;2023-12-20T04:16:21;16.52;;;13.60;;
74908;SDS011;63468;52.058;4.824;2023-12-20T04:18:46;14.98;;;13.55;;
74908;SDS011;63468;52.058;4.824;2023-12-20T04:21:11;17.30;;;15.02;;
74908;SDS011;63468;52.058;4.824;2023-12-20T04:23:37;19.15;;;14.85;;
74908;SDS011;63468;52.058;4.824;2023-12-20T04:26:02;22.65;;;14.65;;
74908;SDS011;63468;52.058;4.824;2023-12-20T04:28:27;16.30;;;14.77;;
74908;SDS011;63468;52.058;4.824;2023-12-20T04:30:55;20.23;;;15.40;;
74908;SDS011;63468;52.058;4.824;2023-12-20T04:33:20;17.65;;;14.85;;
74908;SDS011;63468;52.058;4.824;2023-12-20T04:35:46;17.83;;;14.10;;
74908;SDS011;63468;52.058;4.824;2023-12-20T04:38:11;16.70;;;15.15;;
74908;SDS011;63468;52.058;4.824;2023-12-20T04:40:37;21.10;;;16.30;;
74908;SDS011;63468;52.058;4.824;2023-12-20T04:43:02;26.35;;;15.50;;
74908;SDS011;63468;52.058;4.824;2023-12-20T04:45:28;20.30;;;14.43;;
74908;SDS011;63468;52.058;4.824;2023-12-20T04:47:53;24.77;;;15.80;;
74908;SDS011;63468;52.058;4.824;2023-12-20T04:50:18;18.92;;;15.10;;
74908;SDS011;63468;52.058;4.824;2023-12-20T04:52:44;24.02;;;14.60;;
74908;SDS011;63468;52.058;4.824;2023-12-20T04:55:10;16.90;;;15.40;;
74908;SDS011;63468;52.058;4.824;2023-12-20T04:57:35;17.15;;;14.80;;
74908;SDS011;63468;52.058;4.824;2023-12-20T05:00:01;19.88;;;15.40;;
74908;SDS011;63468;52.058;4.824;2023-12-20T05:02:26;21.65;;;15.02;;
74908;SDS011;63468;52.058;4.824;2023-12-20T05:04:51;17.58;;;14.25;;
74908;SDS011;63468;52.058;4.824;2023-12-20T05:07:17;21.23;;;15.43;;
74908;SDS011;63468;52.058;4.824;2023-12-20T05:09:42;15.65;;;14.13;;
74908;SDS011;63468;52.058;4.824;2023-12-20T05:12:07;16.45;;;14.27;;
74908;SDS011;63468;52.058;4.824;2023-12-20T05:14:33;16.35;;;14.18;;
74908;SDS011;63468;52.058;4.824;2023-12-20T05:16:58;16.17;;;14.40;;
74908;SDS011;63468;52.058;4.824;2023-12-20T05:19:24;16.92;;;14.77;;
74908;SDS011;63468;52.058;4.824;2023-12-20T05:21:50;20.48;;;15.23;;
74908;SDS011;63468;52.058;4.824;2023-12-20T05:24:15;20.02;;;14.13;;
74908;SDS011;63468;52.058;4.824;2023-12-20T05:26:40;16.48;;;14.70;;
74908;SDS011;63468;52.058;4.824;2023-12-20T05:29:06;21.10;;;14.52;;
74908;SDS011;63468;52.058;4.824;2023-12-20T05:31:31;20.77;;;15.10;;
74908;SDS011;63468;52.058;4.824;2023-12-20T05:33:57;15.52;;;13.93;;
74908;SDS011;63468;52.058;4.824;2023-12-20T05:36:22;19.92;;;16.02;;
74908;SDS011;63468;52.058;4.824;2023-12-20T05:38:48;19.33;;;14.85;;
74908;SDS011;63468;52.058;4.824;2023-12-20T05:41:13;27.42;;;14.45;;
74908;SDS011;63468;52.058;4.824;2023-12-20T05:43:38;17.50;;;14.25;;
74908;SDS011;63468;52.058;4.824;2023-12-20T05:46:04;21.95;;;15.35;;
74908;SDS011;63468;52.058;4.824;2023-12-20T05:48:29;20.50;;;14.57;;
74908;SDS011;63468;52.058;4.824;2023-12-20T05:50:55;16.50;;;14.43;;
74908;SDS011;63468;52.058;4.824;2023-12-20T05:53:20;18.63;;;15.05;;
74908;SDS011;63468;52.058;4.824;2023-12-20T05:55:45;25.70;;;14.80;;
74908;SDS011;63468;52.058;4.824;2023-12-20T05:58:11;20.50;;;14.38;;
74908;SDS011;63468;52.058;4.824;2023-12-20T06:00:37;22.85;;;15.38;;
74908;SDS011;63468;52.058;4.824;2023-12-20T06:03:03;22.83;;;14.68;;
74908;SDS011;63468;52.058;4.824;2023-12-20T06:05:29;20.92;;;14.15;;
74908;SDS011;63468;52.058;4.824;2023-12-20T06:07:55;22.73;;;14.32;;
74908;SDS011;63468;52.058;4.824;2023-12-20T06:10:26;19.30;;;14.90;;
74908;SDS011;63468;52.058;4.824;2023-12-20T06:12:51;18.88;;;14.68;;
74908;SDS011;63468;52.058;4.824;2023-12-20T06:15:16;19.95;;;15.48;;
74908;SDS011;63468;52.058;4.824;2023-12-20T06:17:42;15.70;;;14.15;;
74908;SDS011;63468;52.058;4.824;2023-12-20T06:20:07;22.15;;;15.15;;
74908;SDS011;63468;52.058;4.824;2023-12-20T06:22:34;17.45;;;14.50;;
74908;SDS011;63468;52.058;4.824;2023-12-20T06:25:00;20.88;;;13.30;;
74908;SDS011;63468;52.058;4.824;2023-12-20T06:27:25;17.98;;;14.40;;
74908;SDS011;63468;52.058;4.824;2023-12-20T06:29:50;16.40;;;14.25;;
74908;SDS011;63468;52.058;4.824;2023-12-20T06:32:16;23.95;;;14.98;;
74908;SDS011;63468;52.058;4.824;2023-12-20T06:34:41;17.02;;;13.85;;
74908;SDS011;63468;52.058;4.824;2023-12-20T06:37:07;25.05;;;14.77;;
74908;SDS011;63468;52.058;4.824;2023-12-20T06:39:32;17.77;;;14.18;;
74908;SDS011;63468;52.058;4.824;2023-12-20T06:41:59;18.77;;;14.95;;
74908;SDS011;63468;52.058;4.824;2023-12-20T06:44:24;24.00;;;16.75;;
74908;SDS011;63468;52.058;4.824;2023-12-20T06:46:50;16.10;;;14.63;;
74908;SDS011;63468;52.058;4.824;2023-12-20T06:49:15;22.70;;;15.32;;
74908;SDS011;63468;52.058;4.824;2023-12-20T06:51:40;24.75;;;15.55;;
74908;SDS011;63468;52.058;4.824;2023-12-20T06:54:06;19.95;;;15.75;;
74908;SDS011;63468;52.058;4.824;2023-12-20T06:56:32;17.55;;;14.93;;
74908;SDS011;63468;52.058;4.824;2023-12-20T06:58:57;27.02;;;16.00;;
74908;SDS011;63468;52.058;4.824;2023-12-20T07:01:23;20.80;;;15.00;;
74908;SDS011;63468;52.058;4.824;2023-12-20T07:03:48;18.17;;;16.23;;
74908;SDS011;63468;52.058;4.824;2023-12-20T07:06:13;17.63;;;15.07;;
74908;SDS011;63468;52.058;4.824;2023-12-20T07:08:41;16.40;;;14.25;;
74908;SDS011;63468;52.058;4.824;2023-12-20T07:11:06;20.17;;;13.93;;
74908;SDS011;63468;52.058;4.824;2023-12-20T07:13:32;24.48;;;15.10;;
74908;SDS011;63468;52.058;4.824;2023-12-20T07:15:57;24.88;;;15.85;;
74908;SDS011;63468;52.058;4.824;2023-12-20T07:18:22;23.52;;;16.90;;
74908;SDS011;63468;52.058;4.824;2023-12-20T07:20:48;18.70;;;15.70;;
74908;SDS011;63468;52.058;4.824;2023-12-20T07:23:13;21.45;;;16.63;;
74908;SDS011;63468;52.058;4.824;2023-12-20T07:25:38;16.30;;;14.60;;
74908;SDS011;63468;52.058;4.824;2023-12-20T07:28:04;21.67;;;14.43;;
74908;SDS011;63468;52.058;4.824;2023-12-20T07:30:30;16.15;;;14.70;;
74908;SDS011;63468;52.058;4.824;2023-12-20T07:32:55;17.92;;;16.05;;
74908;SDS011;63468;52.058;4.824;2023-12-20T07:35:21;19.65;;;15.52;;
74908;SDS011;63468;52.058;4.824;2023-12-20T07:37:48;20.63;;;16.23;;
74908;SDS011;63468;52.058;4.824;2023-12-20T07:40:13;19.63;;;15.52;;
74908;SDS011;63468;52.058;4.824;2023-12-20T07:42:38;16.60;;;14.90;;
74908;SDS011;63468;52.058;4.824;2023-12-20T07:45:04;25.63;;;14.45;;
74908;SDS011;63468;52.058;4.824;2023-12-20T07:47:29;20.00;;;15.23;;
74908;SDS011;63468;52.058;4.824;2023-12-20T07:49:55;19.67;;;15.38;;
74908;SDS011;63468;52.058;4.824;2023-12-20T07:52:20;23.95;;;14.63;;
74908;SDS011;63468;52.058;4.824;2023-12-20T07:54:47;21.00;;;14.63;;
74908;SDS011;63468;52.058;4.824;2023-12-20T07:57:13;19.02;;;14.80;;
74908;SDS011;63468;52.058;4.824;2023-12-20T07:59:38;22.40;;;14.90;;
74908;SDS011;63468;52.058;4.824;2023-12-20T08:02:03;19.23;;;14.88;;
74908;SDS011;63468;52.058;4.824;2023-12-20T08:04:29;28.13;;;17.00;;
74908;SDS011;63468;52.058;4.824;2023-12-20T08:06:54;19.45;;;14.55;;
74908;SDS011;63468;52.058;4.824;2023-12-20T08:09:20;18.10;;;13.63;;
74908;SDS011;63468;52.058;4.824;2023-12-20T08:11:45;17.17;;;13.35;;
74908;SDS011;63468;52.058;4.824;2023-12-20T08:14:11;14.18;;;12.70;;
74908;SDS011;63468;52.058;4.824;2023-12-20T08:16:37;17.33;;;13.45;;
74908;SDS011;63468;52.058;4.824;2023-12-20T08:19:02;18.70;;;13.90;;
74908;SDS011;63468;52.058;4.824;2023-12-20T08:21:27;18.25;;;14.15;;
74908;SDS011;63468;52.058;4.824;2023-12-20T08:23:53;17.92;;;13.77;;
74908;SDS011;63468;52.058;4.824;2023-12-20T08:26:19;22.48;;;15.07;;
74908;SDS011;63468;52.058;4.824;2023-12-20T08:28:46;23.05;;;13.98;;
74908;SDS011;63468;52.058;4.824;2023-12-20T08:31:15;14.52;;;12.77;;
74908;SDS011;63468;52.058;4.824;2023-12-20T08:33:41;16.70;;;13.38;;
74908;SDS011;63468;52.058;4.824;2023-12-20T08:36:08;25.17;;;13.18;;
74908;SDS011;63468;52.058;4.824;2023-12-20T08:38:34;17.05;;;11.80;;
74908;SDS011;63468;52.058;4.824;2023-12-20T08:40:59;17.13;;;13.63;;
74908;SDS011;63468;52.058;4.824;2023-12-20T08:43:24;26.85;;;14.93;;
74908;SDS011;63468;52.058;4.824;2023-12-20T08:45:50;17.60;;;14.63;;
74908;SDS011;63468;52.058;4.824;2023-12-20T08:48:15;19.23;;;13.57;;
74908;SDS011;63468;52.058;4.824;2023-12-20T08:50:40;25.00;;;14.65;;
74908;SDS011;63468;52.058;4.824;2023-12-20T08:53:06;15.48;;;12.52;;
74908;SDS011;63468;52.058;4.824;2023-12-20T08:55:31;14.35;;;12.25;;
74908;SDS011;63468;52.058;4.824;2023-12-20T08:57:57;15.15;;;12.00;;
74908;SDS011;63468;52.058;4.824;2023-12-20T09:00:22;15.65;;;13.13;;
74908;SDS011;63468;52.058;4.824;2023-12-20T09:02:50;26.02;;;13.60;;
74908;SDS011;63468;52.058;4.824;2023-12-20T09:05:16;16.90;;;14.18;;
74908;SDS011;63468;52.058;4.824;2023-12-20T09:07:41;17.17;;;12.50;;
74908;SDS011;63468;52.058;4.824;2023-12-20T09:10:07;20.73;;;13.23;;
74908;SDS011;63468;52.058;4.824;2023-12-20T09:12:32;23.38;;;12.93;;
74908;SDS011;63468;52.058;4.824;2023-12-20T09:14:57;20.60;;;12.60;;
74908;SDS011;63468;52.058;4.824;2023-12-20T09:17:23;12.75;;;11.52;;
74908;SDS011;63468;52.058;4.824;2023-12-20T09:19:48;15.15;;;12.52;;
74908;SDS011;63468;52.058;4.824;2023-12-20T09:22:14;16.85;;;11.88;;
74908;SDS011;63468;52.058;4.824;2023-12-20T09:24:39;14.70;;;11.27;;
74908;SDS011;63468;52.058;4.824;2023-12-20T09:27:05;14.23;;;12.73;;
74908;SDS011;63468;52.058;4.824;2023-12-20T09:29:30;18.15;;;12.55;;
74908;SDS011;63468;52.058;4.824;2023-12-20T09:31:56;21.33;;;13.40;;
74908;SDS011;63468;52.058;4.824;2023-12-20T09:34:22;19.95;;;11.88;;
74908;SDS011;63468;52.058;4.824;2023-12-20T09:36:48;19.10;;;11.55;;
74908;SDS011;63468;52.058;4.824;2023-12-20T09:39:13;21.75;;;11.60;;
74908;SDS011;63468;52.058;4.824;2023-12-20T09:41:41;14.45;;;12.73;;
74908;SDS011;63468;52.058;4.824;2023-12-20T09:44:08;15.57;;;12.38;;
74908;SDS011;63468;52.058;4.824;2023-12-20T09:46:39;20.27;;;13.93;;
74908;SDS011;63468;52.058;4.824;2023-12-20T09:49:08;29.17;;;12.40;;
74908;SDS011;63468;52.058;4.824;2023-12-20T09:51:33;18.35;;;12.40;;
74908;SDS011;63468;52.058;4.824;2023-12-20T09:53:59;18.02;;;12.73;;
74908;SDS011;63468;52.058;4.824;2023-12-20T09:56:26;13.93;;;12.13;;
74908;SDS011;63468;52.058;4.824;2023-12-20T09:58:51;24.25;;;13.20;;
74908;SDS011;63468;52.058;4.824;2023-12-20T10:01:17;19.55;;;12.48;;
74908;SDS011;63468;52.058;4.824;2023-12-20T10:03:43;15.88;;;13.65;;
74908;SDS011;63468;52.058;4.824;2023-12-20T10:06:08;19.98;;;12.55;;
74908;SDS011;63468;52.058;4.824;2023-12-20T10:08:34;20.55;;;13.23;;
74908;SDS011;63468;52.058;4.824;2023-12-20T10:10:59;24.85;;;12.88;;
74908;SDS011;63468;52.058;4.824;2023-12-20T10:13:27;19.02;;;13.52;;
74908;SDS011;63468;52.058;4.824;2023-12-20T10:15:54;18.98;;;11.70;;
74908;SDS011;63468;52.058;4.824;2023-12-20T10:18:20;18.52;;;12.68;;
74908;SDS011;63468;52.058;4.824;2023-12-20T10:20:46;12.63;;;11.27;;
74908;SDS011;63468;52.058;4.824;2023-12-20T10:23:11;14.60;;;11.18;;
74908;SDS011;63468;52.058;4.824;2023-12-20T10:25:38;17.45;;;11.70;;
74908;SDS011;63468;52.058;4.824;2023-12-20T10:28:14;16.33;;;10.57;;
74908;SDS011;63468;52.058;4.824;2023-12-20T10:30:44;20.05;;;11.15;;
74908;SDS011;63468;52.058;4.824;2023-12-20T10:33:10;18.52;;;10.85;;
74908;SDS011;63468;52.058;4.824;2023-12-20T10:35:36;15.02;;;10.93;;
74908;SDS011;63468;52.058;4.824;2023-12-20T10:38:05;15.30;;;10.93;;
74908;SDS011;63468;52.058;4.824;2023-12-20T10:40:32;19.77;;;10.35;;
74908;SDS011;63468;52.058;4.824;2023-12-20T10:42:59;12.88;;;9.88;;
74908;SDS011;63468;52.058;4.824;2023-12-20T10:45:26;17.02;;;10.77;;
74908;SDS011;63468;52.058;4.824;2023-12-20T10:47:51;19.85;;;10.88;;
74908;SDS011;63468;52.058;4.824;2023-12-20T10:50:18;16.38;;;9.65;;
74908;SDS011;63468;52.058;4.824;2023-12-20T10:52:44;11.40;;;10.15;;
74908;SDS011;63468;52.058;4.824;2023-12-20T10:55:11;16.67;;;10.90;;
74908;SDS011;63468;52.058;4.824;2023-12-20T10:57:37;14.02;;;10.50;;
74908;SDS011;63468;52.058;4.824;2023-12-20T11:00:02;17.25;;;10.68;;
74908;SDS011;63468;52.058;4.824;2023-12-20T11:02:35;14.93;;;11.25;;
74908;SDS011;63468;52.058;4.824;2023-12-20T11:07:51;14.75;;;11.15;;
74908;SDS011;63468;52.058;4.824;2023-12-20T11:10:23;16.67;;;12.07;;
74908;SDS011;63468;52.058;4.824;2023-12-20T11:12:57;20.20;;;11.18;;
74908;SDS011;63468;52.058;4.824;2023-12-20T11:15:28;13.68;;;11.18;;
74908;SDS011;63468;52.058;4.824;2023-12-20T11:17:54;18.23;;;10.00;;
74908;SDS011;63468;52.058;4.824;2023-12-20T11:20:22;23.25;;;10.50;;
74908;SDS011;63468;52.058;4.824;2023-12-20T11:23:00;16.35;;;10.32;;
74908;SDS011;63468;52.058;4.824;2023-12-20T11:25:26;17.15;;;10.48;;
74908;SDS011;63468;52.058;4.824;2023-12-20T11:28:07;16.25;;;10.15;;
74908;SDS011;63468;52.058;4.824;2023-12-20T11:33:08;15.95;;;11.00;;
74908;SDS011;63468;52.058;4.824;2023-12-20T11:35:34;17.63;;;10.18;;
74908;SDS011;63468;52.058;4.824;2023-12-20T11:38:01;16.88;;;10.43;;
74908;SDS011;63468;52.058;4.824;2023-12-20T11:40:27;13.18;;;10.35;;
74908;SDS011;63468;52.058;4.824;2023-12-20T11:42:52;21.17;;;11.60;;
74908;SDS011;63468;52.058;4.824;2023-12-20T11:45:23;21.38;;;12.05;;
74908;SDS011;63468;52.058;4.824;2023-12-20T11:47:50;14.20;;;10.98;;
74908;SDS011;63468;52.058;4.824;2023-12-20T11:50:19;16.70;;;11.00;;
74908;SDS011;63468;52.058;4.824;2023-12-20T11:52:44;26.67;;;12.38;;
74908;SDS011;63468;52.058;4.824;2023-12-20T11:55:10;17.65;;;10.50;;
74908;SDS011;63468;52.058;4.824;2023-12-20T11:57:36;12.38;;;10.55;;
74908;SDS011;63468;52.058;4.824;2023-12-20T12:00:04;13.23;;;10.65;;
74908;SDS011;63468;52.058;4.824;2023-12-20T12:02:31;19.60;;;10.98;;
74908;SDS011;63468;52.058;4.824;2023-12-20T12:04:56;16.92;;;11.27;;
74908;SDS011;63468;52.058;4.824;2023-12-20T12:07:24;13.30;;;10.93;;
74908;SDS011;63468;52.058;4.824;2023-12-20T12:09:49;12.50;;;10.30;;
74908;SDS011;63468;52.058;4.824;2023-12-20T12:12:14;12.18;;;9.90;;
74908;SDS011;63468;52.058;4.824;2023-12-20T12:14:40;16.50;;;10.05;;
74908;SDS011;63468;52.058;4.824;2023-12-20T12:17:12;15.05;;;10.65;;
74908;SDS011;63468;52.058;4.824;2023-12-20T12:19:38;15.80;;;10.35;;
74908;SDS011;63468;52.058;4.824;2023-12-20T12:22:07;18.77;;;10.30;;
74908;SDS011;63468;52.058;4.824;2023-12-20T12:24:37;13.02;;;9.85;;
74908;SDS011;63468;52.058;4.824;2023-12-20T12:27:05;20.17;;;10.00;;
74908;SDS011;63468;52.058;4.824;2023-12-20T12:29:31;14.52;;;9.98;;
74908;SDS011;63468;52.058;4.824;2023-12-20T12:31:56;17.17;;;11.23;;
74908;SDS011;63468;52.058;4.824;2023-12-20T12:34:21;15.75;;;10.30;;
74908;SDS011;63468;52.058;4.824;2023-12-20T12:36:47;17.13;;;11.73;;
74908;SDS011;63468;52.058;4.824;2023-12-20T12:39:13;14.18;;;9.88;;
74908;SDS011;63468;52.058;4.824;2023-12-20T12:41:40;13.02;;;9.65;;
74908;SDS011;63468;52.058;4.824;2023-12-20T12:44:06;16.92;;;10.18;;
74908;SDS011;63468;52.058;4.824;2023-12-20T12:46:31;14.68;;;8.75;;
74908;SDS011;63468;52.058;4.824;2023-12-20T12:48:57;14.90;;;10.10;;
74908;SDS011;63468;52.058;4.824;2023-12-20T12:51:23;11.38;;;9.13;;
74908;SDS011;63468;52.058;4.824;2023-12-20T12:53:48;12.70;;;9.60;;
74908;SDS011;63468;52.058;4.824;2023-12-20T12:56:15;15.95;;;9.55;;
74908;SDS011;63468;52.058;4.824;2023-12-20T12:58:40;15.32;;;10.10;;
74908;SDS011;63468;52.058;4.824;2023-12-20T13:01:06;11.75;;;9.70;;
74908;SDS011;63468;52.058;4.824;2023-12-20T13:03:31;13.68;;;8.75;;
74908;SDS011;63468;52.058;4.824;2023-12-20T13:05:56;15.48;;;9.50;;
74908;SDS011;63468;52.058;4.824;2023-12-20T13:08:22;14.90;;;9.65;;
74908;SDS011;63468;52.058;4.824;2023-12-20T13:10:47;14.98;;;8.48;;
74908;SDS011;63468;52.058;4.824;2023-12-20T13:13:13;13.43;;;9.43;;
74908;SDS011;63468;52.058;4.824;2023-12-20T13:15:38;11.38;;;8.80;;
74908;SDS011;63468;52.058;4.824;2023-12-20T13:18:04;12.90;;;9.30;;
74908;SDS011;63468;52.058;4.824;2023-12-20T13:20:31;16.40;;;9.38;;
74908;SDS011;63468;52.058;4.824;2023-12-20T13:22:56;17.80;;;9.23;;
74908;SDS011;63468;52.058;4.824;2023-12-20T13:25:21;11.70;;;8.75;;
74908;SDS011;63468;52.058;4.824;2023-12-20T13:27:47;13.20;;;9.02;;
74908;SDS011;63468;52.058;4.824;2023-12-20T13:30:12;11.88;;;9.50;;
74908;SDS011;63468;52.058;4.824;2023-12-20T13:32:38;17.17;;;9.23;;
74908;SDS011;63468;52.058;4.824;2023-12-20T13:35:04;15.43;;;8.68;;
74908;SDS011;63468;52.058;4.824;2023-12-20T13:37:29;13.93;;;9.20;;
74908;SDS011;63468;52.058;4.824;2023-12-20T13:39:55;17.00;;;8.98;;
74908;SDS011;63468;52.058;4.824;2023-12-20T13:42:20;20.85;;;9.15;;
74908;SDS011;63468;52.058;4.824;2023-12-20T13:44:46;21.08;;;9.38;;
74908;SDS011;63468;52.058;4.824;2023-12-20T13:47:11;15.70;;;9.48;;
74908;SDS011;63468;52.058;4.824;2023-12-20T13:49:37;13.73;;;8.75;;
74908;SDS011;63468;52.058;4.824;2023-12-20T13:52:02;13.63;;;9.82;;
74908;SDS011;63468;52.058;4.824;2023-12-20T13:54:29;13.73;;;8.43;;
74908;SDS011;63468;52.058;4.824;2023-12-20T13:56:54;12.70;;;8.52;;
74908;SDS011;63468;52.058;4.824;2023-12-20T13:59:19;17.88;;;9.35;;
74908;SDS011;63468;52.058;4.824;2023-12-20T14:01:45;10.60;;;7.72;;
74908;SDS011;63468;52.058;4.824;2023-12-20T14:04:10;13.82;;;9.13;;
74908;SDS011;63468;52.058;4.824;2023-12-20T14:06:36;15.82;;;9.30;;
74908;SDS011;63468;52.058;4.824;2023-12-20T14:09:02;14.85;;;9.20;;
74908;SDS011;63468;52.058;4.824;2023-12-20T14:11:28;16.58;;;9.07;;
74908;SDS011;63468;52.058;4.824;2023-12-20T14:13:53;13.02;;;8.55;;
74908;SDS011;63468;52.058;4.824;2023-12-20T14:16:22;21.10;;;9.32;;
74908;SDS011;63468;52.058;4.824;2023-12-20T14:18:48;11.00;;;8.70;;
74908;SDS011;63468;52.058;4.824;2023-12-20T14:21:14;17.73;;;10.77;;